sensor_id;sensor_type;location;lat;lon;timestamp;temperature;humidity
33841;DHT22;20142;28.494;-16.312;2023-02-28T00:03:25;16.50;84.10
33841;DHT22;20142;28.494;-16.312;2023-02-28T00:08:27;16.50;84.40
33841;DHT22;20142;28.494;-16.312;2023-02-28T00:13:28;16.30;84.30
33841;DHT22;20142;28.494;-16.312;2023-02-28T00:18:30;16.10;84.50
33841;DHT22;20142;28.494;-16.312;2023-02-28T00:23:32;16.00;84.90
33841;DHT22;20142;28.494;-16.312;2023-02-28T00:28:34;16.00;85.10
33841;DHT22;20142;28.494;-16.312;2023-02-28T00:33:36;15.80;84.70
33841;DHT22;20142;28.494;-16.312;2023-02-28T00:38:38;15.70;85.00
33841;DHT22;20142;28.494;-16.312;2023-02-28T00:43:41;15.80;85.10
33841;DHT22;20142;28.494;-16.312;2023-02-28T00:48:43;15.80;85.00
33841;DHT22;20142;28.494;-16.312;2023-02-28T00:53:45;15.80;84.80
33841;DHT22;20142;28.494;-16.312;2023-02-28T00:58:46;15.50;85.20
33841;DHT22;20142;28.494;-16.312;2023-02-28T01:03:48;15.50;85.70
33841;DHT22;20142;28.494;-16.312;2023-02-28T01:08:50;15.70;86.30
33841;DHT22;20142;28.494;-16.312;2023-02-28T01:13:52;15.80;86.10
33841;DHT22;20142;28.494;-16.312;2023-02-28T01:18:53;15.90;86.30
33841;DHT22;20142;28.494;-16.312;2023-02-28T01:23:56;16.00;86.10
33841;DHT22;20142;28.494;-16.312;2023-02-28T01:28:58;15.80;86.10
33841;DHT22;20142;28.494;-16.312;2023-02-28T01:34:00;15.80;86.50
33841;DHT22;20142;28.494;-16.312;2023-02-28T01:39:03;15.70;86.60
33841;DHT22;20142;28.494;-16.312;2023-02-28T01:50:16;15.70;87.30
33841;DHT22;20142;28.494;-16.312;2023-02-28T01:55:22;15.70;87.20
33841;DHT22;20142;28.494;-16.312;2023-02-28T02:00:26;15.70;87.50
33841;DHT22;20142;28.494;-16.312;2023-02-28T02:05:30;15.70;87.50
33841;DHT22;20142;28.494;-16.312;2023-02-28T02:10:44;15.70;87.40
33841;DHT22;20142;28.494;-16.312;2023-02-28T02:16:20;15.60;87.90
33841;DHT22;20142;28.494;-16.312;2023-02-28T02:27:24;15.60;88.20
33841;DHT22;20142;28.494;-16.312;2023-02-28T02:43:40;15.50;88.40
33841;DHT22;20142;28.494;-16.312;2023-02-28T02:48:50;15.60;88.40
33841;DHT22;20142;28.494;-16.312;2023-02-28T02:54:17;15.60;88.30
33841;DHT22;20142;28.494;-16.312;2023-02-28T02:59:22;15.80;88.80
33841;DHT22;20142;28.494;-16.312;2023-02-28T03:04:28;15.80;88.40
33841;DHT22;20142;28.494;-16.312;2023-02-28T03:09:34;15.80;88.60
33841;DHT22;20142;28.494;-16.312;2023-02-28T03:14:55;15.80;88.40
33841;DHT22;20142;28.494;-16.312;2023-02-28T03:31:15;16.00;88.60
33841;DHT22;20142;28.494;-16.312;2023-02-28T03:36:25;16.00;88.40
33841;DHT22;20142;28.494;-16.312;2023-02-28T03:41:51;16.10;88.50
33841;DHT22;20142;28.494;-16.312;2023-02-28T03:47:03;16.00;88.00
33841;DHT22;20142;28.494;-16.312;2023-02-28T03:52:08;15.90;88.50
33841;DHT22;20142;28.494;-16.312;2023-02-28T04:02:32;15.80;88.70
33841;DHT22;20142;28.494;-16.312;2023-02-28T04:07:35;15.70;88.60
33841;DHT22;20142;28.494;-16.312;2023-02-28T04:12:36;15.70;88.80
33841;DHT22;20142;28.494;-16.312;2023-02-28T04:17:38;15.60;88.80
33841;DHT22;20142;28.494;-16.312;2023-02-28T04:22:40;15.40;89.40
33841;DHT22;20142;28.494;-16.312;2023-02-28T04:27:41;15.50;89.20
33841;DHT22;20142;28.494;-16.312;2023-02-28T04:32:45;15.50;89.10
33841;DHT22;20142;28.494;-16.312;2023-02-28T04:37:47;15.50;89.10
33841;DHT22;20142;28.494;-16.312;2023-02-28T04:42:49;15.40;89.30
33841;DHT22;20142;28.494;-16.312;2023-02-28T04:47:50;15.60;89.30
33841;DHT22;20142;28.494;-16.312;2023-02-28T04:52:52;15.50;89.40
33841;DHT22;20142;28.494;-16.312;2023-02-28T04:57:54;15.60;89.60
33841;DHT22;20142;28.494;-16.312;2023-02-28T05:02:55;15.60;89.60
33841;DHT22;20142;28.494;-16.312;2023-02-28T05:07:57;15.60;89.50
33841;DHT22;20142;28.494;-16.312;2023-02-28T05:12:58;15.70;89.50
33841;DHT22;20142;28.494;-16.312;2023-02-28T05:18:00;15.60;89.20
33841;DHT22;20142;28.494;-16.312;2023-02-28T05:23:02;15.60;89.10
33841;DHT22;20142;28.494;-16.312;2023-02-28T05:28:04;15.50;89.20
33841;DHT22;20142;28.494;-16.312;2023-02-28T05:33:06;15.40;89.90
33841;DHT22;20142;28.494;-16.312;2023-02-28T05:38:08;15.40;90.10
33841;DHT22;20142;28.494;-16.312;2023-02-28T05:43:11;15.40;90.50
33841;DHT22;20142;28.494;-16.312;2023-02-28T05:48:13;15.40;90.30
33841;DHT22;20142;28.494;-16.312;2023-02-28T05:53:14;15.50;90.50
33841;DHT22;20142;28.494;-16.312;2023-02-28T05:58:16;15.60;90.30
33841;DHT22;20142;28.494;-16.312;2023-02-28T06:03:18;15.60;90.70
33841;DHT22;20142;28.494;-16.312;2023-02-28T06:08:20;15.60;90.80
33841;DHT22;20142;28.494;-16.312;2023-02-28T06:13:21;15.70;91.00
33841;DHT22;20142;28.494;-16.312;2023-02-28T06:18:23;15.70;91.00
33841;DHT22;20142;28.494;-16.312;2023-02-28T06:23:25;15.80;91.00
33841;DHT22;20142;28.494;-16.312;2023-02-28T06:28:26;15.90;90.80
33841;DHT22;20142;28.494;-16.312;2023-02-28T06:33:28;15.90;90.80
33841;DHT22;20142;28.494;-16.312;2023-02-28T06:38:30;15.90;91.00
33841;DHT22;20142;28.494;-16.312;2023-02-28T06:43:35;15.80;91.00
33841;DHT22;20142;28.494;-16.312;2023-02-28T06:48:39;15.90;91.00
33841;DHT22;20142;28.494;-16.312;2023-02-28T06:53:41;15.80;91.40
33841;DHT22;20142;28.494;-16.312;2023-02-28T06:58:46;16.00;91.20
33841;DHT22;20142;28.494;-16.312;2023-02-28T07:03:50;16.00;91.70
33841;DHT22;20142;28.494;-16.312;2023-02-28T07:08:53;16.00;91.20
33841;DHT22;20142;28.494;-16.312;2023-02-28T07:13:56;16.00;91.20
33841;DHT22;20142;28.494;-16.312;2023-02-28T07:18:58;15.90;91.10
33841;DHT22;20142;28.494;-16.312;2023-02-28T07:24:00;15.90;91.00
33841;DHT22;20142;28.494;-16.312;2023-02-28T07:29:01;15.70;90.80
33841;DHT22;20142;28.494;-16.312;2023-02-28T07:34:03;15.60;90.80
33841;DHT22;20142;28.494;-16.312;2023-02-28T07:39:05;15.70;91.10
33841;DHT22;20142;28.494;-16.312;2023-02-28T07:44:07;15.80;91.00
33841;DHT22;20142;28.494;-16.312;2023-02-28T07:49:09;15.80;91.20
33841;DHT22;20142;28.494;-16.312;2023-02-28T07:54:11;15.80;91.00
33841;DHT22;20142;28.494;-16.312;2023-02-28T07:59:13;15.60;91.00
33841;DHT22;20142;28.494;-16.312;2023-02-28T08:04:14;15.80;91.40
33841;DHT22;20142;28.494;-16.312;2023-02-28T08:09:16;15.90;91.60
33841;DHT22;20142;28.494;-16.312;2023-02-28T08:14:17;16.20;91.50
33841;DHT22;20142;28.494;-16.312;2023-02-28T08:19:19;16.20;91.00
33841;DHT22;20142;28.494;-16.312;2023-02-28T08:24:21;16.40;90.50
33841;DHT22;20142;28.494;-16.312;2023-02-28T08:29:23;16.50;90.60
33841;DHT22;20142;28.494;-16.312;2023-02-28T08:34:25;16.50;90.10
33841;DHT22;20142;28.494;-16.312;2023-02-28T08:39:26;16.40;89.80
33841;DHT22;20142;28.494;-16.312;2023-02-28T08:44:28;16.40;89.70
33841;DHT22;20142;28.494;-16.312;2023-02-28T08:49:30;16.60;90.10
33841;DHT22;20142;28.494;-16.312;2023-02-28T08:54:32;16.70;89.90
33841;DHT22;20142;28.494;-16.312;2023-02-28T08:59:34;17.00;89.70
33841;DHT22;20142;28.494;-16.312;2023-02-28T09:04:36;17.10;89.70
33841;DHT22;20142;28.494;-16.312;2023-02-28T09:09:38;17.40;89.30
33841;DHT22;20142;28.494;-16.312;2023-02-28T09:14:54;17.60;89.40
33841;DHT22;20142;28.494;-16.312;2023-02-28T09:19:56;17.70;89.00
33841;DHT22;20142;28.494;-16.312;2023-02-28T09:24:58;17.80;87.60
33841;DHT22;20142;28.494;-16.312;2023-02-28T09:29:59;18.00;87.70
33841;DHT22;20142;28.494;-16.312;2023-02-28T09:35:01;18.00;87.00
33841;DHT22;20142;28.494;-16.312;2023-02-28T09:40:03;18.00;86.90
33841;DHT22;20142;28.494;-16.312;2023-02-28T09:45:31;18.10;87.20
33841;DHT22;20142;28.494;-16.312;2023-02-28T09:50:41;18.40;87.00
33841;DHT22;20142;28.494;-16.312;2023-02-28T09:56:15;18.50;86.70
33841;DHT22;20142;28.494;-16.312;2023-02-28T10:01:39;18.80;86.40
33841;DHT22;20142;28.494;-16.312;2023-02-28T10:06:49;19.10;86.50
33841;DHT22;20142;28.494;-16.312;2023-02-28T10:11:54;19.30;86.10
33841;DHT22;20142;28.494;-16.312;2023-02-28T10:17:22;19.40;84.70
33841;DHT22;20142;28.494;-16.312;2023-02-28T10:28:17;19.40;84.30
33841;DHT22;20142;28.494;-16.312;2023-02-28T10:33:35;19.40;83.40
33841;DHT22;20142;28.494;-16.312;2023-02-28T10:38:38;19.30;84.00
33841;DHT22;20142;28.494;-16.312;2023-02-28T10:43:43;19.40;82.90
33841;DHT22;20142;28.494;-16.312;2023-02-28T10:48:57;19.50;82.90
33841;DHT22;20142;28.494;-16.312;2023-02-28T10:54:20;19.60;83.40
33841;DHT22;20142;28.494;-16.312;2023-02-28T10:59:30;19.80;83.10
33841;DHT22;20142;28.494;-16.312;2023-02-28T11:04:35;19.80;83.40
33841;DHT22;20142;28.494;-16.312;2023-02-28T11:09:39;19.90;82.50
33841;DHT22;20142;28.494;-16.312;2023-02-28T11:14:51;20.10;82.20
33841;DHT22;20142;28.494;-16.312;2023-02-28T11:20:04;20.30;82.90
33841;DHT22;20142;28.494;-16.312;2023-02-28T11:25:16;20.40;81.20
33841;DHT22;20142;28.494;-16.312;2023-02-28T11:30:34;20.20;81.20
33841;DHT22;20142;28.494;-16.312;2023-02-28T11:35:40;20.10;81.00
33841;DHT22;20142;28.494;-16.312;2023-02-28T11:41:02;20.30;81.00
33841;DHT22;20142;28.494;-16.312;2023-02-28T11:46:36;20.50;80.50
33841;DHT22;20142;28.494;-16.312;2023-02-28T12:31:21;20.90;79.30
33841;DHT22;20142;28.494;-16.312;2023-02-28T12:36:25;20.70;80.20
33841;DHT22;20142;28.494;-16.312;2023-02-28T12:41:48;20.50;80.10
33841;DHT22;20142;28.494;-16.312;2023-02-28T12:46:58;20.50;80.20
33841;DHT22;20142;28.494;-16.312;2023-02-28T12:52:03;20.40;79.90
33841;DHT22;20142;28.494;-16.312;2023-02-28T13:03:35;20.40;79.60
33841;DHT22;20142;28.494;-16.312;2023-02-28T13:14:26;20.80;79.90
33841;DHT22;20142;28.494;-16.312;2023-02-28T13:19:34;20.90;79.10
33841;DHT22;20142;28.494;-16.312;2023-02-28T13:24:48;20.80;79.30
33841;DHT22;20142;28.494;-16.312;2023-02-28T13:29:55;20.70;79.60
33841;DHT22;20142;28.494;-16.312;2023-02-28T13:45:21;20.70;80.40
33841;DHT22;20142;28.494;-16.312;2023-02-28T13:50:40;20.80;80.80
33841;DHT22;20142;28.494;-16.312;2023-02-28T14:01:43;21.10;80.20
33841;DHT22;20142;28.494;-16.312;2023-02-28T14:06:49;20.80;80.20
33841;DHT22;20142;28.494;-16.312;2023-02-28T14:11:53;20.90;79.90
33841;DHT22;20142;28.494;-16.312;2023-02-28T14:16:55;21.00;79.70
33841;DHT22;20142;28.494;-16.312;2023-02-28T14:27:47;20.80;80.50
33841;DHT22;20142;28.494;-16.312;2023-02-28T14:38:37;21.00;80.10
33841;DHT22;20142;28.494;-16.312;2023-02-28T14:43:56;21.20;79.60
33841;DHT22;20142;28.494;-16.312;2023-02-28T14:49:01;21.10;80.00
33841;DHT22;20142;28.494;-16.312;2023-02-28T14:54:05;21.40;79.80
33841;DHT22;20142;28.494;-16.312;2023-02-28T14:59:31;22.70;81.10
33841;DHT22;20142;28.494;-16.312;2023-02-28T15:04:36;27.60;73.00
33841;DHT22;20142;28.494;-16.312;2023-02-28T15:09:38;31.50;65.80
33841;DHT22;20142;28.494;-16.312;2023-02-28T15:14:42;34.20;60.10
33841;DHT22;20142;28.494;-16.312;2023-02-28T15:19:48;35.30;56.40
33841;DHT22;20142;28.494;-16.312;2023-02-28T15:24:53;36.10;54.50
33841;DHT22;20142;28.494;-16.312;2023-02-28T15:29:58;36.50;51.60
33841;DHT22;20142;28.494;-16.312;2023-02-28T15:40:31;36.30;49.00
33841;DHT22;20142;28.494;-16.312;2023-02-28T15:45:44;35.90;49.30
33841;DHT22;20142;28.494;-16.312;2023-02-28T15:51:18;35.90;48.90
33841;DHT22;20142;28.494;-16.312;2023-02-28T15:56:31;36.80;48.10
33841;DHT22;20142;28.494;-16.312;2023-02-28T16:01:36;36.20;48.50
33841;DHT22;20142;28.494;-16.312;2023-02-28T16:06:44;36.80;49.30
33841;DHT22;20142;28.494;-16.312;2023-02-28T16:11:56;37.10;46.90
33841;DHT22;20142;28.494;-16.312;2023-02-28T16:17:07;37.30;46.80
33841;DHT22;20142;28.494;-16.312;2023-02-28T16:22:18;37.00;45.50
33841;DHT22;20142;28.494;-16.312;2023-02-28T16:27:25;36.30;46.80
33841;DHT22;20142;28.494;-16.312;2023-02-28T16:32:32;37.40;47.00
33841;DHT22;20142;28.494;-16.312;2023-02-28T16:37:36;37.50;46.20
33841;DHT22;20142;28.494;-16.312;2023-02-28T16:42:39;37.30;44.50
33841;DHT22;20142;28.494;-16.312;2023-02-28T16:47:41;35.60;45.40
33841;DHT22;20142;28.494;-16.312;2023-02-28T16:52:43;36.70;46.10
33841;DHT22;20142;28.494;-16.312;2023-02-28T16:57:49;36.20;45.30
33841;DHT22;20142;28.494;-16.312;2023-02-28T17:02:53;35.10;45.00
33841;DHT22;20142;28.494;-16.312;2023-02-28T17:07:56;35.70;44.70
33841;DHT22;20142;28.494;-16.312;2023-02-28T17:12:57;35.70;44.90
33841;DHT22;20142;28.494;-16.312;2023-02-28T17:17:59;35.40;44.30
33841;DHT22;20142;28.494;-16.312;2023-02-28T17:23:01;32.70;45.80
33841;DHT22;20142;28.494;-16.312;2023-02-28T17:28:03;31.10;48.30
33841;DHT22;20142;28.494;-16.312;2023-02-28T17:33:05;28.50;51.30
33841;DHT22;20142;28.494;-16.312;2023-02-28T17:38:18;28.80;52.20
33841;DHT22;20142;28.494;-16.312;2023-02-28T17:43:20;25.40;54.50
33841;DHT22;20142;28.494;-16.312;2023-02-28T17:48:21;23.50;57.30
33841;DHT22;20142;28.494;-16.312;2023-02-28T17:53:23;23.30;59.80
33841;DHT22;20142;28.494;-16.312;2023-02-28T17:58:25;25.90;58.70
33841;DHT22;20142;28.494;-16.312;2023-02-28T18:03:26;29.20;55.00
33841;DHT22;20142;28.494;-16.312;2023-02-28T18:08:29;29.70;52.20
33841;DHT22;20142;28.494;-16.312;2023-02-28T18:13:32;28.90;54.00
33841;DHT22;20142;28.494;-16.312;2023-02-28T18:18:34;28.50;55.00
33841;DHT22;20142;28.494;-16.312;2023-02-28T18:23:38;26.70;55.30
33841;DHT22;20142;28.494;-16.312;2023-02-28T18:28:47;24.20;59.90
33841;DHT22;20142;28.494;-16.312;2023-02-28T18:33:50;22.50;61.50
33841;DHT22;20142;28.494;-16.312;2023-02-28T18:38:52;21.50;63.70
33841;DHT22;20142;28.494;-16.312;2023-02-28T18:43:55;21.20;64.40
33841;DHT22;20142;28.494;-16.312;2023-02-28T18:48:57;20.50;65.40
33841;DHT22;20142;28.494;-16.312;2023-02-28T18:53:59;20.10;67.10
33841;DHT22;20142;28.494;-16.312;2023-02-28T18:59:01;19.70;67.60
33841;DHT22;20142;28.494;-16.312;2023-02-28T19:04:04;19.20;70.20
33841;DHT22;20142;28.494;-16.312;2023-02-28T19:09:07;18.80;70.90
33841;DHT22;20142;28.494;-16.312;2023-02-28T19:14:09;18.60;72.00
33841;DHT22;20142;28.494;-16.312;2023-02-28T19:19:11;18.50;72.10
33841;DHT22;20142;28.494;-16.312;2023-02-28T19:24:12;18.40;72.20
33841;DHT22;20142;28.494;-16.312;2023-02-28T19:29:14;18.10;75.00
33841;DHT22;20142;28.494;-16.312;2023-02-28T19:34:16;17.90;75.50
33841;DHT22;20142;28.494;-16.312;2023-02-28T19:39:17;17.70;76.40
33841;DHT22;20142;28.494;-16.312;2023-02-28T19:44:19;17.70;77.90
33841;DHT22;20142;28.494;-16.312;2023-02-28T19:49:21;17.50;77.90
33841;DHT22;20142;28.494;-16.312;2023-02-28T19:54:23;17.40;78.60
33841;DHT22;20142;28.494;-16.312;2023-02-28T19:59:26;17.30;79.30
33841;DHT22;20142;28.494;-16.312;2023-02-28T20:04:28;17.10;79.20
33841;DHT22;20142;28.494;-16.312;2023-02-28T20:09:30;17.10;80.40
33841;DHT22;20142;28.494;-16.312;2023-02-28T20:14:32;17.10;79.60
33841;DHT22;20142;28.494;-16.312;2023-02-28T20:19:33;17.10;80.10
33841;DHT22;20142;28.494;-16.312;2023-02-28T20:24:37;16.90;81.20
33841;DHT22;20142;28.494;-16.312;2023-02-28T20:29:38;16.70;81.40
33841;DHT22;20142;28.494;-16.312;2023-02-28T20:34:40;16.70;82.00
33841;DHT22;20142;28.494;-16.312;2023-02-28T20:39:42;16.60;82.60
33841;DHT22;20142;28.494;-16.312;2023-02-28T20:44:43;16.70;82.60
33841;DHT22;20142;28.494;-16.312;2023-02-28T20:49:45;16.70;82.30
33841;DHT22;20142;28.494;-16.312;2023-02-28T20:54:47;16.80;83.10
33841;DHT22;20142;28.494;-16.312;2023-02-28T20:59:49;16.80;83.20
33841;DHT22;20142;28.494;-16.312;2023-02-28T21:04:50;16.70;84.10
33841;DHT22;20142;28.494;-16.312;2023-02-28T21:09:53;16.70;84.80
33841;DHT22;20142;28.494;-16.312;2023-02-28T21:14:55;16.80;84.50
33841;DHT22;20142;28.494;-16.312;2023-02-28T21:19:57;16.70;84.50
33841;DHT22;20142;28.494;-16.312;2023-02-28T21:24:59;16.70;84.70
33841;DHT22;20142;28.494;-16.312;2023-02-28T21:30:00;16.60;85.00
33841;DHT22;20142;28.494;-16.312;2023-02-28T21:35:02;16.60;85.30
33841;DHT22;20142;28.494;-16.312;2023-02-28T21:40:05;16.50;86.20
33841;DHT22;20142;28.494;-16.312;2023-02-28T21:45:08;16.40;86.00
33841;DHT22;20142;28.494;-16.312;2023-02-28T21:50:10;16.60;86.20
33841;DHT22;20142;28.494;-16.312;2023-02-28T21:55:12;16.70;86.70
33841;DHT22;20142;28.494;-16.312;2023-02-28T22:00:14;16.80;86.50
33841;DHT22;20142;28.494;-16.312;2023-02-28T22:05:17;16.80;86.50
33841;DHT22;20142;28.494;-16.312;2023-02-28T22:10:18;16.80;87.20
33841;DHT22;20142;28.494;-16.312;2023-02-28T22:15:20;16.70;87.50
33841;DHT22;20142;28.494;-16.312;2023-02-28T22:20:22;16.60;87.40
33841;DHT22;20142;28.494;-16.312;2023-02-28T22:25:24;16.70;87.60
33841;DHT22;20142;28.494;-16.312;2023-02-28T22:30:25;16.70;87.40
33841;DHT22;20142;28.494;-16.312;2023-02-28T22:35:28;16.80;87.30
33841;DHT22;20142;28.494;-16.312;2023-02-28T22:40:30;16.80;87.40
33841;DHT22;20142;28.494;-16.312;2023-02-28T22:45:35;16.60;87.30
33841;DHT22;20142;28.494;-16.312;2023-02-28T22:50:37;16.70;87.60
33841;DHT22;20142;28.494;-16.312;2023-02-28T22:55:39;16.60;87.80
33841;DHT22;20142;28.494;-16.312;2023-02-28T23:00:41;16.50;87.90
33841;DHT22;20142;28.494;-16.312;2023-02-28T23:05:42;16.40;88.10
33841;DHT22;20142;28.494;-16.312;2023-02-28T23:10:44;16.40;87.80
33841;DHT22;20142;28.494;-16.312;2023-02-28T23:15:46;16.40;88.20
33841;DHT22;20142;28.494;-16.312;2023-02-28T23:20:48;16.40;88.40
33841;DHT22;20142;28.494;-16.312;2023-02-28T23:25:50;16.40;88.50
33841;DHT22;20142;28.494;-16.312;2023-02-28T23:30:51;16.40;88.50
33841;DHT22;20142;28.494;-16.312;2023-02-28T23:35:53;16.30;88.90
33841;DHT22;20142;28.494;-16.312;2023-02-28T23:40:55;16.20;88.50
33841;DHT22;20142;28.494;-16.312;2023-02-28T23:45:56;16.30;88.50
33841;DHT22;20142;28.494;-16.312;2023-02-28T23:51:07;16.30;88.50
33841;DHT22;20142;28.494;-16.312;2023-02-28T23:56:16;16.30;88.50
